Osg Courageous — WDF7122 — position and weather

sailwx.info

Track history (hours):
 
Tides and Currents Weather Stations Pressure Air Temp Water Temp Dewpoint Dewpoint Depression Visibility Wind Speed Wind Dir Waves Ship Positions

Osg Courageous

Owner: OSG Ship Management, Inc, Tampa, FL. More information available from US FCC via Universal Licensing System and Coast Guard Vessel Documentation Center.

Last reported at 2015-Feb-25 15:30 UTC. Time now 2015-Feb-27 00:34 UTC.
Position N 39°31' W 073°58'.

Length 187 m; draft 11 m.

Type: Tanker. MMSI: 367481310.

Date/timePositionNaut miles runAvg speedWind from/ knotsBaromVisibWave heightAir tempDewpointWater temp
2015-Feb-25 15:30N 39°31' W 073°58'1010.8
2015-Feb-25 14:33N 39°41' W 073°54'1110.8
2015-Feb-25 13:33N 39°51' W 073°52'1210.8
2015-Feb-25 12:29N 40°03' W 073°51'1010.3
2015-Feb-25 11:33N 40°12' W 073°50'18 9.0
2015-Feb-25 09:33N 40°29' W 073°59'9 9.5
2015-Feb-25 08:34N 40°30' W 074°11'4 3.5
2015-Feb-25 07:28N 40°33' W 074°14'2 0.0
2015-Feb-23 05:16N 40°35' W 074°13'3 4.6
2015-Feb-23 04:32N 40°38' W 074°12'6 6.6
2015-Feb-23 03:33N 40°39' W 074°04'1 0.6
2015-Feb-23 02:29N 40°38' W 074°04'0 0.0
2015-Feb-23 01:29N 40°38' W 074°04'0 0.2
2015-Feb-23 00:29N 40°38' W 074°04'0 0.2
2015-Feb-22 23:29N 40°38' W 074°04'0 0.0
2015-Feb-22 22:23N 40°38' W 074°04'0 0.0
2015-Feb-22 21:23N 40°38' W 074°04'0 0.0
2015-Feb-22 20:29N 40°38' W 074°04'0 0.2
2015-Feb-22 19:30N 40°38' W 074°04'2 1.8
2015-Feb-22 18:32N 40°39' W 074°05'0 0.0
2015-Feb-22 17:32N 40°39' W 074°05'0 0.0
2015-Feb-22 16:32N 40°39' W 074°05'0 0.0
2015-Feb-22 15:08N 40°39' W 074°05'0 0.0
2015-Feb-22 14:20N 40°39' W 074°05'0 0.0
2015-Feb-22 13:26N 40°39' W 074°05'0 0.0
2015-Feb-22 12:26N 40°39' W 074°05'0 0.0
2015-Feb-22 11:32N 40°39' W 074°05'0 0.0
2015-Feb-22 10:32N 40°39' W 074°05'0 0.0
2015-Feb-22 09:20N 40°39' W 074°05'0 0.0
2015-Feb-22 08:08N 40°39' W 074°05'0 0.0
2015-Feb-22 07:26N 40°39' W 074°05'0 0.0
2015-Feb-22 04:08N 40°39' W 074°05'0 0.4
2015-Feb-22 03:24N 40°39' W 074°06'  
2015-Feb-19 12:28N 40°39' W 074°07'2 2.1
2015-Feb-19 11:33N 40°39' W 074°04'7 6.9
2015-Feb-19 10:33N 40°32' W 074°01'11 9.3
2015-Feb-19 09:25N 40°27' W 073°49'  
Track history (hours):
 
Tides and Currents Weather Stations Pressure Air Temp Water Temp Dewpoint Dewpoint Depression Visibility Wind Speed Wind Dir Waves Ship Positions

Osg Courageous

Owner: OSG Ship Management, Inc, Tampa, FL. More information available from US FCC via Universal Licensing System and Coast Guard Vessel Documentation Center.

Last reported at 2015-Feb-25 15:30 UTC. Time now 2015-Feb-27 00:34 UTC.
Position N 39°31' W 073°58'.

Length 187 m; draft 11 m.

Type: Tanker. MMSI: 367481310.

Date/timePositionNaut miles runAvg speedWind from/ knotsBaromVisibWave heightAir tempDewpointWater temp
2015-Feb-25 15:30N 39°31' W 073°58'1010.8
2015-Feb-25 14:33N 39°41' W 073°54'1110.8
2015-Feb-25 13:33N 39°51' W 073°52'1210.8
2015-Feb-25 12:29N 40°03' W 073°51'1010.3
2015-Feb-25 11:33N 40°12' W 073°50'18 9.0
2015-Feb-25 09:33N 40°29' W 073°59'9 9.5
2015-Feb-25 08:34N 40°30' W 074°11'4 3.5
2015-Feb-25 07:28N 40°33' W 074°14'2 0.0
2015-Feb-23 05:16N 40°35' W 074°13'3 4.6
2015-Feb-23 04:32N 40°38' W 074°12'6 6.6
2015-Feb-23 03:33N 40°39' W 074°04'1 0.6
2015-Feb-23 02:29N 40°38' W 074°04'0 0.0
2015-Feb-23 01:29N 40°38' W 074°04'0 0.2
2015-Feb-23 00:29N 40°38' W 074°04'0 0.2
2015-Feb-22 23:29N 40°38' W 074°04'0 0.0
2015-Feb-22 22:23N 40°38' W 074°04'0 0.0
2015-Feb-22 21:23N 40°38' W 074°04'0 0.0
2015-Feb-22 20:29N 40°38' W 074°04'0 0.2
2015-Feb-22 19:30N 40°38' W 074°04'2 1.8
2015-Feb-22 18:32N 40°39' W 074°05'0 0.0
2015-Feb-22 17:32N 40°39' W 074°05'0 0.0
2015-Feb-22 16:32N 40°39' W 074°05'0 0.0
2015-Feb-22 15:08N 40°39' W 074°05'0 0.0
2015-Feb-22 14:20N 40°39' W 074°05'0 0.0
2015-Feb-22 13:26N 40°39' W 074°05'0 0.0
2015-Feb-22 12:26N 40°39' W 074°05'0 0.0
2015-Feb-22 11:32N 40°39' W 074°05'0 0.0
2015-Feb-22 10:32N 40°39' W 074°05'0 0.0
2015-Feb-22 09:20N 40°39' W 074°05'0 0.0
2015-Feb-22 08:08N 40°39' W 074°05'0 0.0
2015-Feb-22 07:26N 40°39' W 074°05'0 0.0
2015-Feb-22 04:08N 40°39' W 074°05'0 0.4
2015-Feb-22 03:24N 40°39' W 074°06'  
2015-Feb-19 12:28N 40°39' W 074°07'2 2.1
2015-Feb-19 11:33N 40°39' W 074°04'7 6.9
2015-Feb-19 10:33N 40°32' W 074°01'11 9.3
2015-Feb-19 09:25N 40°27' W 073°49'  

Dump ship's entire track history